• Join FlightAware (Why Join?)
  • Login
  • US Flag 
03:34AM EDT


 

Airport Tracker/Info


-or-


 

Live Flight TrackerFlight Track Log ✈ DAL2128 ✈ 01-Sep-2013 ✈ KMCO - KDTW

Flight Track Log - Related Links

Times and Time Zones

All times are in EDT time to prevent confusion due to time zone crossing. See the DAL2128 flight status page for this flight to view local times or setup timezone preferences in your user account.

Time Position Orientation Groundspeed Altitude Reporting Facility
EDT Latitude Longitude Course Direction KTS MPH feet Rate Location/Type
02:01PM 28.4000 -81.3000 North 164 189 900  Level Orlando TRACON
02:02PM 28.3667 -81.3167 204° Southwest 233 268 2,600 2,520 Climbing Orlando TRACON
02:03PM 28.3167 -81.3667 221° Southwest 232 267 5,800 2,940 Climbing Orlando TRACON
02:04PM 28.8882 -81.3610 350° North  Level FlightAware Approximate
02:04PM 28.3333 -81.4333 286° West 265 305 8,500  Level Orlando TRACON
02:05PM 29.0082 -81.3683 350° North  Level FlightAware Approximate
02:05PM 28.4167 -81.4333 360° North 314 361 10,900  Level Orlando TRACON
02:06PM 29.1276 -81.3833 North  Level FlightAware Approximate
02:06PM 28.5742 -81.4767 346° North 368 423 12,800  Level Jacksonville Center
02:07PM 28.6831 -81.5058 347° North 389 448 15,000 2,100 Climbing Jacksonville Center
02:08PM 28.7981 -81.5350 347° North 400 460 17,000 1,920 Climbing Jacksonville Center
02:09PM 28.9172 -81.5594 350° North 412 474 18,900 1,800 Climbing Jacksonville Center
02:10PM 29.0367 -81.5936 346° North 425 489 20,600 1,560 Climbing Jacksonville Center
02:11PM 29.1622 -81.6250 348° North 432 497 22,100 1,440 Climbing Jacksonville Center
02:12PM 29.2731 -81.6547 347° North 443 510 23,500 1,260 Climbing Jacksonville Center
02:13PM 29.3986 -81.6889 347° North 455 524 24,700 1,380 Climbing Jacksonville Center
02:14PM 29.5261 -81.7183 349° North 460 529 26,300 1,500 Climbing Jacksonville Center
02:15PM 29.6558 -81.7406 352° North 465 535 27,800 1,440 Climbing Jacksonville Center
02:16PM 29.7811 -81.7536 355° North 465 535 29,200 1,320 Climbing Jacksonville Center
02:17PM 29.9067 -81.7642 356° North 465 535 30,500 840 Climbing Jacksonville Center
02:18PM 30.0467 -81.7767 356° North 465 535 30,900 240 Climbing Jacksonville Center
02:19PM 30.1742 -81.7922 354° North 460 529 31,000  Climbing Jacksonville Center
02:20PM 30.2869 -81.8028 355° North 465 535 31,000  Level Jacksonville Center
02:21PM 30.4144 -81.8158 355° North 460 529 31,000  Level Jacksonville Center
02:22PM 30.5397 -81.8289 355° North 460 529 31,000  Level Jacksonville Center
02:23PM 30.6694 -81.8467 353° North 466 536 31,000  Level Jacksonville Center
02:24PM 30.7969 -81.8600 355° North 461 531 31,000  Level Jacksonville Center
02:25PM 30.9389 -81.8753 355° North 466 536 31,000  Level Jacksonville Center
02:26PM 31.0644 -81.8886 355° North 456 525 31,000 -60 Level Jacksonville Center
02:27PM 31.1939 -81.9017 355° North 455 524 30,900  Descending Jacksonville Center
02:28PM 31.3192 -81.9150 355° North 448 516 31,000  Climbing Jacksonville Center
02:29PM 31.4300 -81.9236 356° North 443 510 31,000  Level Jacksonville Center
02:30PM 31.5700 -81.9392 355° North 443 510 31,000  Level Jacksonville Center
02:31PM 31.6850 -81.9503 355° North 448 516 31,000  Level Jacksonville Center
02:32PM 31.8083 -81.9636 355° North 448 516 31,000  Level Jacksonville Center
02:33PM 31.9461 -81.9769 355° North 448 516 31,000  Level Jacksonville Center
02:35PM 32.2119 -82.0039 355° North 476 548 31,000  Level Atlanta Center
02:36PM 32.3311 -82.0183 354° North 456 525 31,000  Level Atlanta Center
02:37PM 32.4586 -82.0278 356° North 456 525 31,000  Level Atlanta Center
02:38PM 32.5842 -82.0419 355° North 456 525 31,000  Level Atlanta Center
02:39PM 32.7117 -82.0564 355° North 456 525 31,000  Level Atlanta Center
02:40PM 32.8372 -82.0733 354° North 456 525 31,000  Level Atlanta Center
02:41PM 32.9647 -82.0853 356° North 461 531 31,000  Level Atlanta Center
02:42PM 33.0942 -82.0972 356° North 461 531 31,000  Level Atlanta Center
02:43PM 33.2219 -82.1119 354° North 461 531 31,000  Level Atlanta Center
02:44PM 33.3514 -82.1239 356° North 461 531 31,000  Level Atlanta Center
02:45PM 33.4789 -82.1386 354° North 461 531 31,000  Level Atlanta Center
02:46PM 33.6064 -82.1481 356° North 461 531 31,000  Level Atlanta Center
02:47PM 33.7214 -82.1531 358° North 461 531 31,000  Level Atlanta Center
02:48PM 33.8483 -82.1328 North 461 531 31,000  Level Atlanta Center
02:49PM 33.9733 -82.1125 North 456 525 31,000  Level Atlanta Center
02:50PM 34.0981 -82.0897 North 456 525 31,000  Level Atlanta Center
02:51PM 34.2208 -82.0717 North 456 525 31,000  Level Atlanta Center
02:52PM 34.3478 -82.0486 North 450 518 31,000  Level Atlanta Center
02:53PM 34.4728 -82.0256 North 450 518 31,000  Level Atlanta Center
02:54PM 34.5975 -82.0050 North 450 518 31,000  Level Atlanta Center
02:55PM 34.7225 -81.9842 North 450 518 31,000  Level Atlanta Center
02:56PM 34.8472 -81.9608 North 445 512 31,000  Level Atlanta Center
02:57PM 34.9783 -81.9425 North 452 520 31,000  Level Atlanta Center
02:58PM 35.1158 -81.9314 North 457 526 31,000  Level Atlanta Center
02:59PM 35.2475 -81.9356 359° North 462 532 31,000  Level Atlanta Center
03:00PM 35.3747 -81.9400 358° North 456 525 31,000  Level Atlanta Center
03:01PM 35.5000 -81.9444 358° North 456 525 31,000  Level Atlanta Center
03:02PM 35.6247 -81.9156 11° North 461 531 31,000  Level Atlanta Center
03:03PM 35.7428 -81.8564 22° Northeast 450 518 31,000  Level Atlanta Center
03:04PM 35.8669 -81.8017 20° North 463 533 31,000  Level Atlanta Center
03:05PM 35.9814 -81.7961 North 475 547 31,000  Level Atlanta Center
03:06PM 36.1053 -81.8336 346° North 464 534 31,000  Level Atlanta Center
03:07PM 36.2269 -81.8844 341° North 469 540 31,000  Level Atlanta Center
03:08PM 36.3425 -81.9328 341° North 452 520 31,000  Level Atlanta Center
03:09PM 36.4644 -81.9814 342° North 452 520 31,000  Level Atlanta Center
03:11PM 36.7397 -81.9906 358° North 460 529 31,000  Level Indianapolis Center
03:12PM 36.8714 -81.9908 360° North 469 540 31,000  Level Indianapolis Center
03:13PM 36.9986 -81.9936 359° North 461 531 31,000  Level Indianapolis Center
03:14PM 37.1492 -81.9964 359° North 464 534 31,000  Level Indianapolis Center
03:16PM 37.2775 -81.9992 359° North 463 533 31,000  Level Indianapolis Center
03:17PM 37.4067 -82.0022 359° North 465 535 31,000  Level Indianapolis Center
03:18PM 37.5331 -82.0033 360° North 458 527 31,000  Level Indianapolis Center
03:19PM 37.6614 -82.0058 359° North 460 529 31,000  Level Indianapolis Center
03:20PM 37.7897 -82.0078 359° North 461 531 31,000  Level Indianapolis Center
03:21PM 37.9133 -82.0097 359° North 459 528 31,000  Level Indianapolis Center
03:22PM 38.0417 -82.0119 359° North 461 531 31,000  Level Indianapolis Center
03:23PM 38.1717 -82.0136 359° North 463 533 31,000  Level Indianapolis Center
03:24PM 38.3294 -82.0158 359° North 468 539 31,000  Level Indianapolis Center
03:25PM 38.4608 -82.0183 359° North 468 539 31,000  Level Indianapolis Center
03:26PM 38.5917 -82.0214 359° North 468 539 31,000  Level Indianapolis Center
03:27PM 38.7236 -82.0214 360° North 468 539 31,000  Level Indianapolis Center
03:28PM 38.8533 -82.0364 355° North 463 533 31,000  Level Indianapolis Center
03:29PM 38.9814 -82.0572 353° North 462 532 31,000  Level Indianapolis Center
03:30PM 39.1106 -82.0656 357° North 462 532 31,000  Level Indianapolis Center
03:31PM 39.2406 -82.0717 358° North 464 534 31,000 -60 Level Indianapolis Center
03:32PM 39.3683 -82.0767 358° North 460 529 30,900 -420 Descending Indianapolis Center
03:33PM 39.4961 -82.0825 358° North 460 529 30,200 -720 Descending Indianapolis Center
03:34PM 39.6244 -82.0883 358° North 460 529 29,500 -600 Descending Indianapolis Center
03:35PM 39.7522 -82.0944 358° North 459 528 29,000 -300 Descending Indianapolis Center
03:36PM 39.8792 -82.0986 359° North 457 526 29,000  Level Indianapolis Center
03:37PM 40.0325 -82.1056 358° North 460 529 29,000  Level Indianapolis Center
03:38PM 40.1589 -82.1108 358° North 456 525 29,000  Level Indianapolis Center
03:39PM 40.2897 -82.1156 358° North 457 526 29,000  Level Indianapolis Center
03:40PM 40.4158 -82.1411 351° North 453 521 29,000  Level Indianapolis Center
03:41PM 40.5392 -82.1772 347° North 449 517 29,000  Level Indianapolis Center
03:42PM 40.6558 -82.2383 338° Northwest 445 512 29,000 -180 Level Indianapolis Center
03:43PM 40.7778 -82.2992 339° North 460 529 28,700 -600 Descending Indianapolis Center
03:44PM 40.8992 -82.3600 339° North 461 531 27,900 -840 Descending Indianapolis Center
03:45PM 41.0200 -82.4206 339° North 458 527 27,000 -1,440 Descending Indianapolis Center
03:46PM 41.1375 -82.4792 339° North 448 516 25,000 -2,280 Descending Indianapolis Center
03:47PM 41.2494 -82.5358 339° North 430 495 22,400 -2,520 Descending Indianapolis Center
03:48PM 41.3578 -82.5897 340° North 415 478 19,900 -2,520 Descending Indianapolis Center
03:49PM 41.4617 -82.6431 339° North 400 460 17,300 -2,460 Descending Indianapolis Center
03:51PM 41.5983 -82.7156 338° Northwest 373 429 14,200 -2,100 Descending Cleveland Center
03:52PM 41.7139 -82.7750 339° North 365 420 12,000 -1,140 Descending Cleveland Center
03:53PM 41.7772 -82.8442 321° Northwest 365 420 12,000  Level Cleveland Center
03:54PM 41.8625 -82.9475 318° Northwest 361 415 12,000  Level Cleveland Center
03:55PM 41.9400 -83.0369 319° Northwest 359 413 12,000  Level Cleveland Center
03:56PM 42.0050 -83.1150 318° Northwest 297 342 12,000  Level Cleveland Center
03:57PM 42.0536 -83.1728 319° Northwest 311 358 12,000 -480 Level Cleveland Center
03:58PM 42.1133 -83.2144 333° Northwest 252 290 11,200 -1,020 Descending Cleveland Center
03:59PM 42.1800 -83.2058 North 231 266 10,000 -1,380 Descending Cleveland Center
04:00PM 42.2644 -83.1589 22° Northeast 247 284 8,100 -840 Descending Cleveland Center
04:01PM 42.3281 -83.1164 26° Northeast 226 260 8,000 -60 Descending Cleveland Center
04:02PM 42.3767 -83.0847 26° Northeast 228 262 8,000  Level Cleveland Center
04:03PM 42.4339 -83.0475 26° Northeast 228 262 8,000 -300 Level Cleveland Center
04:04PM 42.4967 -83.0275 13° North 212 244 7,400 -540 Descending Cleveland Center
04:05PM 42.5142 -83.0931 290° West 197 227 7,000 -600 Descending Cleveland Center
04:06PM 42.4797 -83.1422 226° Southwest 179 206 6,300 -780 Descending Cleveland Center
04:07PM 42.4331 -83.1769 209° Southwest 181 208 5,500 -780 Descending Cleveland Center
04:08PM 42.3906 -83.2119 211° Southwest 178 205 4,800 -900 Descending Cleveland Center
04:09PM 42.3461 -83.2408 206° Southwest 173 199 3,700 -1,140 Descending Cleveland Center
04:10PM 42.3036 -83.2756 211° Southwest 171 197 2,500 -1,020 Descending Cleveland Center
04:11PM 42.2675 -83.3022 209° Southwest 151 174 1,700 -840 Descending Cleveland Center
04:12PM 42.2272 -83.3286 206° Southwest 154 177 900 -840 Descending Cleveland Center